Time;durP1;ratioP1;P1;durP2;ratioP2;P2;SDS_P1;SDS_P2;PMS_P1;PMS_P2;Temp;Humidity;BMP_temperature;BMP_pressure;BME280_temperature;BME280_humidity;BME280_pressure;Samples;Min_cycle;Max_cycle;Signal;HPM_P1;HPM_P2
2022/11/10 05:02:26;;;;;;;11.30;10.50;;;;;;;;;;5042100;23;20850;-84
2022/11/10 05:04:52;;;;;;;10.07;9.38;;;;;;;;;;5014690;28;20467;-88
2022/11/10 05:07:18;;;;;;;8.60;8.00;;;;;;;;;;5015927;28;20420;-84
2022/11/10 05:09:44;;;;;;;8.23;7.63;;;;;;;;;;5028663;28;20387;-84
2022/11/10 05:12:10;;;;;;;8.43;7.73;;;;;;;;;;5018458;28;20421;-84
2022/11/10 05:14:36;;;;;;;7.57;6.97;;;;;;;;;;5015821;28;20452;-85
2022/11/10 05:17:02;;;;;;;6.95;6.43;;;;;;;;;;5008002;28;20385;-85
2022/11/10 05:19:28;;;;;;;7.13;6.63;;;;;;;;;;5005473;28;20935;-84
2022/11/10 05:21:54;;;;;;;7.10;6.60;;;;;;;;;;5010685;28;20406;-85
2022/11/10 05:24:19;;;;;;;6.82;6.22;;;;;;;;;;4994182;28;20449;-84
2022/11/10 05:26:45;;;;;;;7.63;6.93;;;;;;;;;;4995373;28;20792;-85
2022/11/10 05:29:11;;;;;;;7.53;7.03;;;;;;;;;;4996328;28;20386;-86
2022/11/10 05:31:37;;;;;;;7.07;6.57;;;;;;;;;;4998790;28;20456;-85
2022/11/10 05:34:03;;;;;;;7.72;7.15;;;;;;;;;;4995092;28;20860;-85
2022/11/10 05:36:29;;;;;;;7.65;7.05;;;;;;;;;;4999837;28;20393;-84
2022/11/10 05:38:55;;;;;;;8.40;7.63;;;;;;;;;;5014730;28;20385;-84
2022/11/10 05:41:21;;;;;;;8.40;7.70;;;;;;;;;;5014932;28;20383;-85
2022/11/10 05:43:47;;;;;;;7.65;7.15;;;;;;;;;;5014772;28;20858;-86
2022/11/10 05:46:14;;;;;;;7.50;7.00;;;;;;;;;;5014777;28;20471;-84
2022/11/10 05:48:39;;;;;;;8.40;7.80;;;;;;;;;;5015255;28;20734;-85
2022/11/10 05:51:06;;;;;;;8.00;7.40;;;;;;;;;;5015294;28;20385;-85
2022/11/10 05:53:32;;;;;;;8.35;7.75;;;;;;;;;;5015154;28;20385;-85
2022/11/10 05:55:58;;;;;;;8.23;7.57;;;;;;;;;;5010609;28;20390;-85
2022/11/10 05:58:24;;;;;;;8.23;7.55;;;;;;;;;;5008251;28;20393;-84
2022/11/10 06:00:50;;;;;;;7.97;7.38;;;;;;;;;;5013712;28;20487;-85
2022/11/10 06:03:17;;;;;;;7.68;7.07;;;;;;;;;;4996020;28;20400;-85
2022/11/10 06:05:43;;;;;;;7.80;7.20;;;;;;;;;;4998200;28;20656;-85
2022/11/10 06:08:09;;;;;;;8.00;7.30;;;;;;;;;;5015023;28;20392;-86
2022/11/10 06:10:36;;;;;;;7.15;6.65;;;;;;;;;;5014738;28;20467;-85
2022/11/10 06:13:02;;;;;;;7.30;6.70;;;;;;;;;;5010716;28;20383;-85
2022/11/10 06:15:28;;;;;;;7.90;7.18;;;;;;;;;;4995907;28;20871;-85
2022/11/10 06:17:54;;;;;;;7.10;6.50;;;;;;;;;;5013427;28;20380;-85
2022/11/10 06:20:21;;;;;;;8.30;7.50;;;;;;;;;;5014603;28;20412;-85
2022/11/10 06:23:03;;;;;;;8.80;8.05;;;;;;;;;;5008674;28;20399;-85
2022/11/10 06:25:30;;;;;;;8.27;7.65;;;;;;;;;;5014633;28;20440;-85
2022/11/10 06:27:56;;;;;;;8.68;7.88;;;;;;;;;;5014577;28;20384;-85
2022/11/10 06:30:22;;;;;;;8.33;7.53;;;;;;;;;;5014440;28;20788;-86
2022/11/10 06:32:48;;;;;;;9.02;8.13;;;;;;;;;;4996889;28;20394;-85
2022/11/10 06:35:14;;;;;;;8.75;7.57;;;;;;;;;;5014468;28;20381;-86
2022/11/10 06:37:40;;;;;;;8.55;7.60;;;;;;;;;;5014504;28;20385;-86
2022/11/10 06:40:08;;;;;;;7.47;6.88;;;;;;;;;;5013096;28;20871;-84
2022/11/10 06:42:34;;;;;;;8.50;7.57;;;;;;;;;;5014834;28;20385;-85
2022/11/10 06:45:00;;;;;;;8.25;7.38;;;;;;;;;;5014610;28;20377;-86
2022/11/10 06:47:27;;;;;;;10.10;9.00;;;;;;;;;;4994821;28;20409;-86
2022/11/10 06:49:53;;;;;;;7.47;6.68;;;;;;;;;;5000898;28;20404;-86
2022/11/10 06:52:19;;;;;;;7.05;6.35;;;;;;;;;;4994771;28;20398;-86
2022/11/10 06:54:45;;;;;;;7.47;6.68;;;;;;;;;;5008112;28;20385;-87
2022/11/10 06:57:11;;;;;;;7.18;6.47;;;;;;;;;;5004777;28;20862;-85
2022/11/10 06:59:37;;;;;;;6.80;6.20;;;;;;;;;;5000590;28;20399;-86
2022/11/10 07:02:03;;;;;;;7.90;7.20;;;;;;;;;;5010256;28;20471;-84
2022/11/10 07:04:29;;;;;;;7.28;6.63;;;;;;;;;;5013756;28;20472;-84
2022/11/10 07:06:55;;;;;;;7.20;6.50;;;;;;;;;;5013802;28;20424;-84
2022/11/10 07:09:21;;;;;;;7.25;6.65;;;;;;;;;;5012135;28;20389;-85
2022/11/10 07:11:47;;;;;;;7.50;6.90;;;;;;;;;;5004125;28;20382;-85
2022/11/10 07:14:13;;;;;;;6.70;6.20;;;;;;;;;;5009791;28;20742;-84
2022/11/10 07:16:39;;;;;;;7.57;6.88;;;;;;;;;;5012376;28;20389;-84
2022/11/10 07:19:05;;;;;;;7.03;6.47;;;;;;;;;;5008232;28;20391;-84
2022/11/10 07:21:31;;;;;;;7.13;6.43;;;;;;;;;;4984617;28;20388;-84
2022/11/10 07:23:57;;;;;;;6.55;5.97;;;;;;;;;;4980048;28;20894;-85
2022/11/10 07:26:23;;;;;;;6.00;5.60;;;;;;;;;;4994414;28;20416;-84
2022/11/10 07:28:49;;;;;;;5.67;5.17;;;;;;;;;;4991341;28;20574;-85
2022/11/10 07:31:14;;;;;;;5.85;5.43;;;;;;;;;;4981338;28;20380;-84
2022/11/10 07:33:42;;;;;;;5.97;5.47;;;;;;;;;;5002958;28;20392;-85
2022/11/10 07:36:08;;;;;;;5.80;5.40;;;;;;;;;;5013416;28;20387;-84
2022/11/10 07:38:34;;;;;;;6.13;5.63;;;;;;;;;;5013228;28;20389;-84
2022/11/10 07:41:00;;;;;;;9.88;6.63;;;;;;;;;;5013241;28;20487;-85
2022/11/10 07:43:26;;;;;;;7.07;6.47;;;;;;;;;;5011460;28;20440;-85
2022/11/10 07:45:53;;;;;;;7.32;6.72;;;;;;;;;;5004290;28;20411;-85
2022/11/10 07:48:19;;;;;;;7.50;6.80;;;;;;;;;;5000981;28;20423;-85
2022/11/10 07:50:45;;;;;;;6.35;5.85;;;;;;;;;;4992468;28;20381;-85
2022/11/10 07:53:13;;;;;;;6.97;6.38;;;;;;;;;;5010960;28;20380;-84
2022/11/10 07:55:40;;;;;;;6.90;6.35;;;;;;;;;;4992494;28;20928;-85
2022/11/10 07:58:06;;;;;;;6.60;6.05;;;;;;;;;;5006945;28;20389;-86
2022/11/10 08:00:33;;;;;;;6.63;6.03;;;;;;;;;;5013098;28;20403;-84
2022/11/10 08:03:19;;;;;;;6.53;6.00;;;;;;;;;;5009325;28;20381;-85
2022/11/10 08:05:45;;;;;;;6.60;6.10;;;;;;;;;;5000962;28;20921;-86
2022/11/10 08:08:11;;;;;;;6.87;6.27;;;;;;;;;;5013669;28;20734;-85
2022/11/10 08:10:37;;;;;;;6.75;6.25;;;;;;;;;;5012834;28;20384;-84
2022/11/10 08:13:05;;;;;;;6.32;5.82;;;;;;;;;;4997492;28;20750;-84
2022/11/10 08:15:31;;;;;;;6.83;6.23;;;;;;;;;;4992175;28;20423;-85
2022/11/10 08:17:59;;;;;;;7.43;6.68;;;;;;;;;;4993436;28;20887;-85
2022/11/10 08:20:25;;;;;;;7.28;6.70;;;;;;;;;;4993642;28;20391;-85
2022/11/10 08:22:55;;;;;;;7.47;6.82;;;;;;;;;;5003674;28;21191;-85
2022/11/10 08:25:21;;;;;;;8.90;7.10;;;;;;;;;;4997269;28;20485;-86
2022/11/10 08:27:47;;;;;;;8.13;7.32;;;;;;;;;;5003552;28;20386;-85
2022/11/10 08:30:13;;;;;;;7.53;6.72;;;;;;;;;;4999978;28;20449;-84
2022/11/10 08:32:39;;;;;;;7.25;6.65;;;;;;;;;;4995616;28;20466;-85
2022/11/10 08:35:05;;;;;;;7.63;7.03;;;;;;;;;;4991989;28;20459;-84
2022/11/10 08:37:31;;;;;;;7.90;7.20;;;;;;;;;;4999078;28;20408;-85
2022/11/10 08:39:57;;;;;;;7.35;6.75;;;;;;;;;;5012252;28;20381;-86
2022/11/10 08:42:23;;;;;;;7.53;6.88;;;;;;;;;;5012878;28;20389;-86
2022/11/10 08:44:49;;;;;;;7.60;6.90;;;;;;;;;;5003539;28;20537;-87
2022/11/10 08:47:15;;;;;;;8.07;7.38;;;;;;;;;;5012212;28;20628;-88
2022/11/10 08:49:41;;;;;;;7.85;7.15;;;;;;;;;;5008116;28;20745;-87
2022/11/10 08:52:09;;;;;;;8.03;7.33;;;;;;;;;;4998652;28;20460;-86
2022/11/10 08:54:35;;;;;;;8.13;7.33;;;;;;;;;;5012220;28;20736;-85
2022/11/10 08:57:01;;;;;;;8.00;7.20;;;;;;;;;;5002453;28;20377;-88
2022/11/10 08:59:27;;;;;;;7.78;7.07;;;;;;;;;;5012482;28;20460;-88
2022/11/10 09:01:53;;;;;;;12.57;8.20;;;;;;;;;;5010531;28;20396;-90
2022/11/10 09:04:19;;;;;;;9.82;8.60;;;;;;;;;;5012416;28;20384;-88
2022/11/10 09:06:45;;;;;;;10.32;8.32;;;;;;;;;;5012399;28;20444;-88
2022/11/10 09:09:11;;;;;;;12.43;9.37;;;;;;;;;;5010778;28;20491;-86
2022/11/10 09:11:37;;;;;;;10.88;8.93;;;;;;;;;;5012365;28;20377;-86
2022/11/10 09:14:03;;;;;;;13.52;9.82;;;;;;;;;;5012076;28;20464;-86
2022/11/10 09:16:29;;;;;;;10.20;8.90;;;;;;;;;;5012431;28;20446;-87
2022/11/10 09:18:55;;;;;;;15.10;11.57;;;;;;;;;;5010373;28;20385;-88
2022/11/10 09:21:21;;;;;;;12.77;10.32;;;;;;;;;;4997815;28;20404;-88
2022/11/10 09:23:48;;;;;;;11.17;9.90;;;;;;;;;;4996524;28;20471;-87
2022/11/10 09:26:14;;;;;;;10.93;9.82;;;;;;;;;;4997961;28;20416;-87
2022/11/10 09:28:40;;;;;;;12.68;10.63;;;;;;;;;;5000624;28;20382;-88
2022/11/10 09:31:06;;;;;;;13.10;11.73;;;;;;;;;;5004144;28;20389;-89
2022/11/10 09:33:32;;;;;;;11.85;10.65;;;;;;;;;;5009327;28;20381;-87
2022/11/10 09:35:58;;;;;;;11.90;10.73;;;;;;;;;;5000862;28;20387;-86
2022/11/10 09:38:25;;;;;;;12.15;10.50;;;;;;;;;;5003570;28;20401;-88
2022/11/10 09:41:01;;;;;;;15.73;12.75;;;;;;;;;;4994567;28;20394;-89
2022/11/10 09:43:37;;;;;;;16.17;12.63;;;;;;;;;;5009373;28;20379;-89
2022/11/10 09:46:09;;;;;;;18.00;15.45;;;;;;;;;;5008507;28;20420;-88
2022/11/10 09:48:38;;;;;;;19.45;15.80;;;;;;;;;;5015434;28;20382;-89
2022/11/10 09:51:17;;;;;;;22.25;16.90;;;;;;;;;;5015515;28;20408;-90
2022/11/10 09:53:47;;;;;;;23.80;17.13;;;;;;;;;;5017421;28;20385;-89
2022/11/10 09:56:16;;;;;;;20.45;16.52;;;;;;;;;;5008805;28;20390;-91
2022/11/10 09:58:43;;;;;;;16.13;13.15;;;;;;;;;;5014423;28;20957;-89
2022/11/10 10:01:27;;;;;;;11.30;10.15;;;;;;;;;;5014910;28;20432;-90
2022/11/10 10:04:12;;;;;;;17.10;14.57;;;;;;;;;;5005582;28;20380;-88
2022/11/10 10:06:44;;;;;;;11.18;9.98;;;;;;;;;;5015355;28;20416;-90
2022/11/10 10:09:23;;;;;;;9.57;8.55;;;;;;;;;;5015314;28;20388;-91
2022/11/10 10:12:07;;;;;;;17.40;13.35;;;;;;;;;;5015339;28;20377;-90
2022/11/10 10:14:36;;;;;;;11.05;9.80;;;;;;;;;;5015215;28;20455;-91
2022/11/10 10:17:02;;;;;;;10.73;9.73;;;;;;;;;;5015110;28;20496;-90
2022/11/10 10:19:31;;;;;;;10.73;9.63;;;;;;;;;;5015086;28;20436;-91
2022/11/10 10:22:16;;;;;;;11.20;10.18;;;;;;;;;;5014889;28;20443;-89
2022/11/10 10:24:42;;;;;;;10.93;9.93;;;;;;;;;;5014863;28;20420;-88
2022/11/10 10:27:21;;;;;;;11.23;9.95;;;;;;;;;;5014669;28;20532;-89
2022/11/10 10:29:48;;;;;;;11.18;9.85;;;;;;;;;;5015140;28;20377;-90
2022/11/10 10:32:15;;;;;;;14.07;10.38;;;;;;;;;;5007807;28;20390;-91
2022/11/10 10:34:42;;;;;;;16.48;13.23;;;;;;;;;;5011885;28;20389;-89
2022/11/10 10:37:26;;;;;;;12.00;10.90;;;;;;;;;;5014897;28;20869;-91
2022/11/10 10:39:54;;;;;;;10.98;9.90;;;;;;;;;;5016222;28;20396;-91
2022/11/10 10:42:23;;;;;;;10.30;9.40;;;;;;;;;;5016728;28;20470;-89
2022/11/10 10:45:09;;;;;;;9.93;9.02;;;;;;;;;;5015543;28;20396;-89
2022/11/10 10:47:36;;;;;;;10.13;9.13;;;;;;;;;;5007799;28;20500;-91
2022/11/10 10:50:34;;;;;;;10.68;9.70;;;;;;;;;;5015375;28;20385;-91
2022/11/10 10:53:15;;;;;;;12.00;10.75;;;;;;;;;;4988754;28;20492;-92
2022/11/10 10:55:46;;;;;;;12.10;11.00;;;;;;;;;;5012321;28;20376;-90
2022/11/10 10:58:38;;;;;;;13.05;11.48;;;;;;;;;;5009842;28;20435;-90
2022/11/10 11:01:24;;;;;;;11.65;10.48;;;;;;;;;;4985522;28;20833;-90
2022/11/10 11:03:50;;;;;;;11.57;10.57;;;;;;;;;;5016290;28;20381;-89
2022/11/10 11:06:16;;;;;;;11.40;10.32;;;;;;;;;;5015139;28;20413;-92
2022/11/10 11:08:56;;;;;;;12.68;11.38;;;;;;;;;;5014936;28;20412;-92
2022/11/10 11:11:30;;;;;;;13.50;12.20;;;;;;;;;;5016239;28;20471;-91
2022/11/10 11:14:12;;;;;;;15.43;13.80;;;;;;;;;;5016630;28;20385;-90
2022/11/10 11:16:45;;;;;;;16.52;13.68;;;;;;;;;;5015886;28;20456;-91
2022/11/10 11:19:11;;;;;;;16.60;14.98;;;;;;;;;;5015161;28;20399;-90
2022/11/10 11:21:42;;;;;;;17.83;15.18;;;;;;;;;;5014485;28;20396;-89
2022/11/10 11:24:08;;;;;;;16.02;14.43;;;;;;;;;;5015143;28;20399;-91
2022/11/10 11:26:43;;;;;;;17.52;15.73;;;;;;;;;;5014333;28;20897;-90
2022/11/10 11:29:21;;;;;;;13.20;12.00;;;;;;;;;;5000450;28;20389;-90
2022/11/10 11:31:50;;;;;;;13.25;11.85;;;;;;;;;;4985446;28;20379;-91
2022/11/10 11:34:28;;;;;;;14.38;13.00;;;;;;;;;;5003415;28;20387;-91
2022/11/10 11:37:01;;;;;;;31.35;12.77;;;;;;;;;;4989019;28;20381;-91
2022/11/10 11:39:45;;;;;;;13.70;12.40;;;;;;;;;;5015269;28;20392;-91
2022/11/10 11:42:30;;;;;;;13.20;11.97;;;;;;;;;;5015330;28;20429;-90
2022/11/10 11:45:15;;;;;;;12.93;11.63;;;;;;;;;;5008395;28;20396;-92
2022/11/10 11:48:03;;;;;;;13.77;12.57;;;;;;;;;;5015715;28;20751;-89
2022/11/10 11:50:36;;;;;;;16.63;14.75;;;;;;;;;;5008496;28;20457;-89
2022/11/10 11:53:20;;;;;;;16.42;14.65;;;;;;;;;;5009320;28;20459;-91
2022/11/10 11:55:49;;;;;;;16.23;14.80;;;;;;;;;;5011714;28;20393;-89
2022/11/10 11:58:32;;;;;;;17.42;15.82;;;;;;;;;;4996099;28;20390;-90
2022/11/10 12:01:17;;;;;;;15.90;14.50;;;;;;;;;;5014899;28;20401;-91
2022/11/10 12:03:58;;;;;;;15.43;14.02;;;;;;;;;;5014047;28;20397;-91
2022/11/10 12:06:34;;;;;;;15.40;13.90;;;;;;;;;;5028841;28;20898;-90
2022/11/10 12:09:03;;;;;;;22.13;18.60;;;;;;;;;;5018514;28;20408;-91
2022/11/10 12:11:47;;;;;;;22.17;18.42;;;;;;;;;;5029929;28;20385;-93
2022/11/10 12:14:16;;;;;;;27.75;22.77;;;;;;;;;;5035704;28;20423;-91
2022/11/10 12:16:48;;;;;;;27.42;21.42;;;;;;;;;;5026696;28;20389;-90
2022/11/10 12:19:37;;;;;;;31.67;23.58;;;;;;;;;;5017747;28;20483;-93
2022/11/10 12:22:12;;;;;;;25.15;20.90;;;;;;;;;;4997711;28;20416;-90
2022/11/10 12:24:41;;;;;;;25.23;20.07;;;;;;;;;;5009821;28;20413;-91
2022/11/10 12:27:11;;;;;;;27.30;21.77;;;;;;;;;;4999991;28;20410;-93
2022/11/10 12:29:40;;;;;;;33.95;24.60;;;;;;;;;;5010250;28;20369;-93
2022/11/10 13:19:43;;;;;;;20.67;16.17;;;;;;;;;;5032975;28;20463;-94
2022/11/10 13:22:28;;;;;;;15.33;12.37;;;;;;;;;;5022073;28;20386;-94
2022/11/10 13:25:30;;;;;;;12.57;11.27;;;;;;;;;;4999135;28;20386;-93
2022/11/10 13:31:22;;;;;;;12.10;10.80;;;;;;;;;;4975457;23;20486;-92
2022/11/10 13:34:26;;;;;;;;;;;;;;;;;;;;;
2022/11/10 13:37:26;;;;;;;28.25;17.90;;;;;;;;;;5042299;28;20488;-94
2022/11/10 13:40:21;;;;;;;20.80;15.50;;;;;;;;;;5037792;28;20390;-93
2022/11/10 13:46:12;;;;;;;11.05;7.50;;;;;;;;;;4933245;29;20453;-94
2022/11/10 13:48:56;;;;;;;6.50;5.70;;;;;;;;;;4957220;28;20897;-93
2022/11/10 15:42:52;;;;;;;6.35;5.13;;;;;;;;;;5027745;28;20379;-93
2022/11/10 16:02:30;;;;;;;9.93;8.75;;;;;;;;;;5955358;22;20445;-88
2022/11/10 16:04:56;;;;;;;8.93;7.70;;;;;;;;;;5051904;28;20395;-89
2022/11/10 16:07:22;;;;;;;16.10;10.85;;;;;;;;;;5047266;28;20380;-90
2022/11/10 16:09:48;;;;;;;22.13;14.53;;;;;;;;;;5037929;28;20440;-93
2022/11/10 16:12:16;;;;;;;27.00;16.63;;;;;;;;;;5033163;28;20398;-92
2022/11/10 16:14:45;;;;;;;26.15;16.88;;;;;;;;;;5032594;28;20461;-94
2022/11/10 16:17:11;;;;;;;20.77;15.13;;;;;;;;;;5019035;28;20459;-94
2022/11/10 16:19:37;;;;;;;19.27;14.68;;;;;;;;;;5037476;28;20395;-94
2022/11/10 16:59:46;;;;;;;8.90;7.47;;;;;;;;;;4994420;28;20407;-92
2022/11/10 17:16:04;;;;;;;8.37;6.33;;;;;;;;;;5233005;22;20583;-93
2022/11/10 17:18:26;;;;;;;7.88;7.03;;;;;;;;;;5055401;28;20393;-91
2022/11/10 17:20:52;;;;;;;11.45;6.68;;;;;;;;;;5058279;28;20377;-91
2022/11/10 17:23:22;;;;;;;7.32;6.60;;;;;;;;;;5057343;28;20385;-89
2022/11/10 17:25:49;;;;;;;9.35;5.88;;;;;;;;;;5056720;28;20579;-91
2022/11/10 17:28:15;;;;;;;8.20;7.40;;;;;;;;;;5057068;28;20373;-89
2022/11/10 17:30:42;;;;;;;8.15;7.18;;;;;;;;;;5056076;28;20389;-92
2022/11/10 17:33:08;;;;;;;9.63;7.70;;;;;;;;;;5056503;28;20442;-90
2022/11/10 17:35:55;;;;;;;8.68;7.78;;;;;;;;;;5055720;28;20785;-91
2022/11/10 17:38:25;;;;;;;9.40;7.90;;;;;;;;;;5055626;28;20466;-89
2022/11/10 17:40:51;;;;;;;9.20;8.32;;;;;;;;;;5032210;28;20857;-90
2022/11/10 17:43:17;;;;;;;11.82;10.63;;;;;;;;;;5055432;28;20388;-90
2022/11/10 17:45:43;;;;;;;16.05;12.40;;;;;;;;;;5056209;28;20479;-90
2022/11/10 17:48:10;;;;;;;14.88;11.85;;;;;;;;;;5056288;28;20858;-90
2022/11/10 17:50:37;;;;;;;11.48;10.25;;;;;;;;;;5056242;28;20777;-89
2022/11/10 17:53:08;;;;;;;11.15;10.05;;;;;;;;;;5055233;28;20381;-92
2022/11/10 17:55:35;;;;;;;11.40;10.30;;;;;;;;;;5054930;28;20376;-88
2022/11/10 17:58:01;;;;;;;10.55;9.55;;;;;;;;;;5054691;28;20409;-87
2022/11/10 18:00:28;;;;;;;9.13;8.33;;;;;;;;;;5053791;28;20460;-89
2022/11/10 18:02:54;;;;;;;9.60;8.70;;;;;;;;;;5054717;28;20385;-89
2022/11/10 18:05:21;;;;;;;9.73;8.73;;;;;;;;;;5058466;28;20802;-91
2022/11/10 18:07:50;;;;;;;11.05;8.77;;;;;;;;;;5054927;28;20381;-89
2022/11/10 18:10:16;;;;;;;9.10;8.15;;;;;;;;;;5055201;28;20476;-90
2022/11/10 18:12:43;;;;;;;11.57;8.07;;;;;;;;;;5055116;28;20416;-90
2022/11/10 18:15:13;;;;;;;10.10;9.20;;;;;;;;;;5055003;28;20404;-89
2022/11/10 18:17:39;;;;;;;9.20;8.13;;;;;;;;;;5059060;28;20413;-89
2022/11/10 18:20:05;;;;;;;11.30;10.20;;;;;;;;;;5052324;28;20453;-87
2022/11/10 18:22:31;;;;;;;11.48;10.27;;;;;;;;;;5057937;28;20442;-87
2022/11/10 18:24:57;;;;;;;10.93;9.93;;;;;;;;;;5054304;28;20374;-87
2022/11/10 18:27:25;;;;;;;9.45;7.07;;;;;;;;;;5054179;28;20404;-87
2022/11/10 18:29:51;;;;;;;8.50;6.80;;;;;;;;;;5058105;28;20469;-87
2022/11/10 18:32:17;;;;;;;12.87;8.50;;;;;;;;;;5062454;28;20842;-86
2022/11/10 18:34:43;;;;;;;8.05;6.35;;;;;;;;;;5064747;28;20404;-88
2022/11/10 18:37:09;;;;;;;7.70;6.90;;;;;;;;;;5054389;28;20850;-89
2022/11/10 18:39:35;;;;;;;10.60;7.57;;;;;;;;;;5039712;28;20394;-88
2022/11/10 18:42:01;;;;;;;13.43;9.02;;;;;;;;;;5054274;28;20383;-87
2022/11/10 18:44:28;;;;;;;9.55;7.53;;;;;;;;;;5052980;28;20390;-88
2022/11/10 18:46:54;;;;;;;7.97;7.18;;;;;;;;;;5057689;28;20381;-88
2022/11/10 18:49:20;;;;;;;7.28;6.50;;;;;;;;;;5059712;28;20392;-89
2022/11/10 18:51:46;;;;;;;8.80;8.00;;;;;;;;;;5059605;28;20446;-89
2022/11/10 18:54:12;;;;;;;10.88;9.52;;;;;;;;;;5062589;28;20386;-88
2022/11/10 18:56:38;;;;;;;12.05;10.85;;;;;;;;;;5054521;28;20416;-89
2022/11/10 18:59:04;;;;;;;14.07;10.90;;;;;;;;;;5056672;28;20374;-89
2022/11/10 19:01:31;;;;;;;12.38;11.07;;;;;;;;;;5064521;28;20719;-89
2022/11/10 19:03:57;;;;;;;11.32;10.18;;;;;;;;;;5052405;28;20393;-88
2022/11/10 19:06:23;;;;;;;12.73;10.43;;;;;;;;;;5053430;28;20397;-89
2022/11/10 19:08:49;;;;;;;9.50;8.47;;;;;;;;;;5065735;28;20392;-87
2022/11/10 19:11:17;;;;;;;9.93;8.93;;;;;;;;;;5054859;28;20391;-90
2022/11/10 19:13:44;;;;;;;9.57;8.60;;;;;;;;;;5042154;28;20401;-88
2022/11/10 19:16:11;;;;;;;9.73;8.82;;;;;;;;;;5071596;28;20771;-87
2022/11/10 19:18:38;;;;;;;9.20;8.23;;;;;;;;;;5063874;28;20380;-88
2022/11/10 19:21:14;;;;;;;8.68;7.88;;;;;;;;;;5066514;28;20731;-89
2022/11/10 19:23:40;;;;;;;7.97;7.23;;;;;;;;;;5068313;28;20368;-89
2022/11/10 19:26:12;;;;;;;8.25;7.55;;;;;;;;;;5069090;28;20910;-91
2022/11/10 19:28:38;;;;;;;6.95;6.35;;;;;;;;;;5036673;28;20732;-91
2022/11/10 19:31:09;;;;;;;6.87;6.23;;;;;;;;;;5059668;28;20398;-90
2022/11/10 19:33:36;;;;;;;7.07;6.38;;;;;;;;;;5063193;28;20380;-90
2022/11/10 19:36:02;;;;;;;6.68;5.80;;;;;;;;;;5059423;28;20414;-90
2022/11/10 19:38:28;;;;;;;6.03;5.43;;;;;;;;;;5062448;28;20383;-90
2022/11/10 19:40:54;;;;;;;6.55;5.97;;;;;;;;;;5064614;28;20400;-88
2022/11/10 19:43:20;;;;;;;6.15;5.53;;;;;;;;;;5055491;28;21938;-89
2022/11/10 19:45:48;;;;;;;6.68;6.07;;;;;;;;;;5058958;28;20454;-90
2022/11/10 19:48:14;;;;;;;6.28;5.70;;;;;;;;;;5066822;28;20385;-91
2022/11/10 19:50:40;;;;;;;5.97;5.38;;;;;;;;;;5061103;28;20424;-90
2022/11/10 19:53:06;;;;;;;6.03;5.45;;;;;;;;;;5055457;28;20381;-89
2022/11/10 19:55:32;;;;;;;5.63;5.13;;;;;;;;;;5062136;28;20964;-88
2022/11/10 19:57:58;;;;;;;5.53;5.03;;;;;;;;;;5066839;28;20407;-91
2022/11/10 20:00:25;;;;;;;5.82;5.32;;;;;;;;;;5060033;28;20439;-88
2022/11/10 20:02:51;;;;;;;6.60;6.00;;;;;;;;;;5059589;28;20382;-88
2022/11/10 20:05:17;;;;;;;7.93;7.13;;;;;;;;;;5059519;28;20742;-87
2022/11/10 20:10:31;;;;;;;7.60;6.90;;;;;;;;;;5062966;28;20994;-86
2022/11/10 20:12:57;;;;;;;7.50;6.88;;;;;;;;;;5062913;28;20451;-86
2022/11/10 20:15:23;;;;;;;6.90;6.30;;;;;;;;;;5061049;28;20400;-87
2022/11/10 20:17:49;;;;;;;7.22;6.53;;;;;;;;;;5035575;28;20419;-89
2022/11/10 20:20:15;;;;;;;6.40;5.80;;;;;;;;;;5047473;28;20899;-91
2022/11/10 20:22:41;;;;;;;6.30;5.80;;;;;;;;;;5052353;28;20901;-91
2022/11/10 20:25:08;;;;;;;7.15;6.45;;;;;;;;;;5056443;28;20403;-90
2022/11/10 20:27:34;;;;;;;6.45;5.85;;;;;;;;;;5050175;28;20393;-91
2022/11/10 20:30:00;;;;;;;6.40;5.80;;;;;;;;;;5054099;28;20405;-90
2022/11/10 20:32:26;;;;;;;6.70;6.10;;;;;;;;;;5047078;28;20397;-90
2022/11/10 20:34:52;;;;;;;7.20;6.50;;;;;;;;;;5051493;28;21085;-91
2022/11/10 20:37:18;;;;;;;6.80;6.20;;;;;;;;;;5032638;28;20420;-94
2022/11/10 20:39:44;;;;;;;7.07;6.40;;;;;;;;;;5048123;28;20444;-90
2022/11/10 20:42:10;;;;;;;7.82;7.13;;;;;;;;;;5048700;28;20405;-90
2022/11/10 20:44:36;;;;;;;7.30;6.60;;;;;;;;;;5045833;28;20886;-91
2022/11/10 20:47:03;;;;;;;6.53;5.93;;;;;;;;;;5050601;28;20405;-90
2022/11/10 20:49:29;;;;;;;6.45;5.90;;;;;;;;;;5046146;28;20406;-91
2022/11/10 20:51:58;;;;;;;6.65;6.05;;;;;;;;;;5046487;28;20427;-91
2022/11/10 20:54:24;;;;;;;6.55;5.90;;;;;;;;;;5052789;28;20381;-89
2022/11/10 20:56:50;;;;;;;6.55;6.05;;;;;;;;;;5053117;28;20413;-90
2022/11/10 20:59:16;;;;;;;6.28;5.75;;;;;;;;;;5057879;28;20890;-90
2022/11/10 21:01:42;;;;;;;6.13;5.63;;;;;;;;;;5047940;28;20883;-88
2022/11/10 21:04:09;;;;;;;7.18;6.57;;;;;;;;;;5055851;28;20649;-89
2022/11/10 21:06:35;;;;;;;8.75;7.85;;;;;;;;;;5060555;28;20386;-88
2022/11/10 21:09:01;;;;;;;8.00;7.30;;;;;;;;;;5054562;28;20803;-88
2022/11/10 21:14:12;;;;;;;7.87;7.07;;;;;;;;;;5054703;28;20600;-88
2022/11/10 21:16:38;;;;;;;7.38;6.53;;;;;;;;;;5054032;28;20412;-88
2022/11/10 21:19:04;;;;;;;7.60;7.00;;;;;;;;;;5038719;28;20408;-87
2022/11/10 21:21:33;;;;;;;7.13;6.43;;;;;;;;;;5050937;28;20411;-88
2022/11/10 21:24:02;;;;;;;6.72;6.13;;;;;;;;;;5055597;28;20396;-87
2022/11/10 21:26:29;;;;;;;7.20;6.50;;;;;;;;;;5051218;28;20411;-88
2022/11/10 21:28:56;;;;;;;8.00;7.28;;;;;;;;;;5041846;28;21887;-88
2022/11/10 21:31:22;;;;;;;7.90;7.13;;;;;;;;;;5057015;28;20410;-87
2022/11/10 21:33:48;;;;;;;7.13;6.53;;;;;;;;;;5066556;28;20380;-87
2022/11/10 21:36:14;;;;;;;7.40;6.72;;;;;;;;;;5065048;28;20400;-87
2022/11/10 21:38:41;;;;;;;6.43;5.73;;;;;;;;;;5064236;28;20867;-87
2022/11/10 21:41:07;;;;;;;6.70;6.10;;;;;;;;;;5059880;28;20766;-88
2022/11/10 21:43:33;;;;;;;6.80;6.10;;;;;;;;;;5064032;28;20465;-88
2022/11/10 21:46:04;;;;;;;7.67;6.97;;;;;;;;;;5071882;28;20368;-88
2022/11/10 21:48:30;;;;;;;9.02;7.70;;;;;;;;;;5065862;28;20442;-87
2022/11/10 21:50:59;;;;;;;8.03;7.23;;;;;;;;;;5069987;28;20861;-88
2022/11/10 21:53:25;;;;;;;7.45;6.80;;;;;;;;;;5059047;28;20381;-87
2022/11/10 21:56:01;;;;;;;7.47;6.77;;;;;;;;;;5062941;28;20387;-88
2022/11/10 21:58:27;;;;;;;7.40;6.60;;;;;;;;;;5070617;28;20388;-89
2022/11/10 22:01:00;;;;;;;6.55;6.05;;;;;;;;;;5066497;28;20379;-87
2022/11/10 22:03:27;;;;;;;6.45;5.85;;;;;;;;;;5049820;28;20375;-86
2022/11/10 22:05:53;;;;;;;6.10;5.60;;;;;;;;;;5067496;28;20737;-87
2022/11/10 22:08:19;;;;;;;6.40;5.20;;;;;;;;;;5069819;28;20380;-89
2022/11/10 22:19:10;;;;;;;5.35;4.85;;;;;;;;;;5040728;28;20531;-89
2022/11/10 22:21:36;;;;;;;5.68;5.20;;;;;;;;;;5054502;28;20885;-89
2022/11/10 22:26:47;;;;;;;6.90;5.72;;;;;;;;;;5053541;28;20455;-88
2022/11/10 22:29:13;;;;;;;6.93;5.68;;;;;;;;;;5052481;28;20390;-88
2022/11/10 22:31:39;;;;;;;6.18;5.60;;;;;;;;;;5052050;28;20373;-89
2022/11/10 22:34:05;;;;;;;6.07;5.57;;;;;;;;;;5052441;28;20389;-90
2022/11/10 22:36:32;;;;;;;5.93;5.32;;;;;;;;;;5034295;28;20492;-88
2022/11/10 22:38:58;;;;;;;6.28;5.70;;;;;;;;;;5052209;28;20374;-88
2022/11/10 22:44:10;;;;;;;5.68;5.18;;;;;;;;;;5054336;28;20428;-88
2022/11/10 22:46:38;;;;;;;5.90;5.40;;;;;;;;;;5053515;28;20393;-90
2022/11/10 22:49:05;;;;;;;6.22;5.63;;;;;;;;;;5053661;28;20381;-88
2022/11/10 22:51:32;;;;;;;5.80;5.30;;;;;;;;;;5033724;28;20390;-87
2022/11/10 22:53:58;;;;;;;6.50;5.90;;;;;;;;;;5034066;28;20509;-88
2022/11/10 22:56:24;;;;;;;6.30;5.70;;;;;;;;;;5050226;28;20407;-89
2022/11/10 22:58:50;;;;;;;6.13;5.63;;;;;;;;;;5054366;28;20837;-89
